Monday, November 20, 2017, 2:33 AM EST
Back to Local

KFRG, Farmingdale Republic Airport

Location: Farmingdale, NY, United States Lat: 40.733
Local Time: 2:33 AM EST ( 7:33 GMT) Lon: -73.417
Time Zone: US/Eastern Elev: 82 ft

Show me the last for .
Show Decoded

2017-11-20 01:53 METAR KFRG 200653Z AUTO 28007KT 10SM OVC090 04/M02 A2983 RMK AO2 SLP102
                 T00391017 =
2017-11-20 00:53 METAR KFRG 200553Z AUTO 29007KT 10SM CLR 04/M01 A2981 RMK AO2 SLP093 60000
                 T00391011 10072 20039 51019 =
2017-11-19 23:53 METAR KFRG 200453Z AUTO 28012KT 10SM FEW060 OVC080 04/00 A2979 RMK AO2 PK WND
                 29026/0356 RAB0357E14 SLP088 P0000 T00390000 401500039 =
2017-11-19 22:53 METAR KFRG 200353Z AUTO 28010G19KT 10SM FEW048 BKN060 BKN090 07/M03 A2977 RMK
                 AO2 SLP082 T00671028 =
2017-11-19 21:53 METAR KFRG 200253Z 30008KT 10SM FEW055 OVC090 07/M03 A2975 RMK AO2 SLP074
                 T00671033 53019 =
2017-11-19 20:53 METAR KFRG 200153Z 29008KT 10SM OVC080 07/M03 A2973 RMK AO2 SLP067 T00671033 =
2017-11-19 19:53 METAR KFRG 200053Z 00000KT 10SM CLR 06/M04 A2971 RMK AO2 SLP061 T00561039 =
2017-11-19 18:53 METAR KFRG 192353Z 32005KT 10SM SCT065 07/M04 A2969 RMK AO2 SLP055 T00671039
                 10106 20067 51037 =
2017-11-19 17:53 METAR KFRG 192253Z 32010G17KT 10SM BKN055 07/M04 A2967 RMK AO2 PK WND 33028/2214
                 SLP046 T00671039 =
2017-11-19 16:53 METAR KFRG 192153Z 31015G24KT 10SM BKN048 07/M03 A2963 RMK AO2 SLP032 T00721033
                 =
2017-11-19 15:53 METAR KFRG 192053Z 31015G31KT 10SM FEW045 08/M02 A2958 RMK AO2 PK WND 30031/2027
                 SLP018 T00781022 53036 =
2017-11-19 14:53 METAR KFRG 191953Z 31018G33KT 10SM BKN046 09/M02 A2954 RMK AO2 PK WND 29033/1947
                 SLP004 T00891017 =
2017-11-19 13:53 METAR KFRG 191853Z 29019G26KT 10SM BKN047 11/M01 A2950 RMK AO2 PK WND 30036/1756
                 SLP990 T01061011 =
2017-11-19 12:53 METAR KFRG 191753Z 31020G36KT 10SM SCT045 09/M01 A2948 RMK AO2 PK WND 30039/1716
                 SLP982 60006 T00941011 10144 20094 51046 =
2017-11-19 11:53 METAR KFRG 191653Z AUTO 31019G38KT 10SM FEW050 11/M01 A2945 RMK AO2 PK WND
                 30038/1645 SLP972 T01061006 =
2017-11-19 10:53 METAR KFRG 191553Z AUTO 30013G33KT 10SM FEW043 10/01 A2941 RMK AO2 PK WND
                 29035/1535 SLP957 T01000011 =
2017-11-19 09:53 METAR KFRG 191453Z AUTO 28018G28KT 10SM OVC042 12/04 A2934 RMK AO2 PK WND
                 28032/1413 SLP936 60006 T01170044 53034 =
2017-11-19 08:53 METAR KFRG 191353Z AUTO 27016G24KT 10SM BKN035 OVC046 13/08 A2929 RMK AO2 PK WND
                 27034/1325 RAE26 PRESRR SLP919 P0005 T01280078 =
2017-11-19 08:35 METAR KFRG 191335Z AUTO 26017G31KT 10SM FEW019 SCT030 OVC038 13/08 A2927 RMK AO2
                 PK WND 27034/1325 RAE26 P0005 T01330083 =
2017-11-19 07:53 METAR KFRG 191253Z AUTO 22017G28KT 7SM -RA FEW007 BKN026 OVC033 14/13 A2924 RMK
                 AO2 PK WND 22028/1251 RAE01B18 SLP901 P0001 T01440133 =
2017-11-19 07:07 METAR KFRG 191207Z AUTO 22017G23KT 10SM SCT007 BKN026 OVC070 14/13 A2924 RMK AO2
                 PK WND 22026/1156 RAE01 P0000 T01440133 =
2017-11-19 06:53 METAR KFRG 191153Z AUTO 21016G22KT 6SM -RA BR BKN007 BKN023 OVC070 14/13 A2924
                 RMK AO2 SLP902 P0002 60020 70030 T01390128 10150 20139 56021 =
2017-11-19 05:53 METAR KFRG 191053Z AUTO 21015G22KT 6SM -RA BR BKN007 OVC049 14/13 A2926 RMK AO2
                 PK WND 23026/1037 SLP908 P0011 T01390133 =
2017-11-19 05:00 METAR KFRG 191000Z AUTO 21016G22KT 5SM RA BR BKN007 OVC018 14/13 A2928 RMK AO2
                 P0002 T01390128 =
2017-11-19 04:53 METAR KFRG 190953Z AUTO 21015G21KT 5SM RA BR SCT007 OVC018 14/13 A2928 RMK AO2
                 RAB05 SLP915 P0005 T01390128 =
2017-11-19 04:12 METAR KFRG 190912Z AUTO 21017G22KT 5SM RA BR FEW009 BKN021 OVC026 14/13 A2930
                 RMK AO2 RAB05 P0002 T01390128 =
2017-11-19 03:53 METAR KFRG 190853Z AUTO 21016G24KT 9SM OVC024 14/13 A2930 RMK AO2 PK WND
                 20030/0801 RAB01E52 SLP923 P0002 60002 T01440128 56032 =
2017-11-19 03:19 METAR KFRG 190819Z AUTO 22018G29KT 8SM -RA BKN029 OVC036 14/13 A2933 RMK AO2 PK
                 WND 20030/0801 RAB01 P0001 T01440128 =
2017-11-19 02:53 METAR KFRG 190753Z AUTO 21023G27KT 10SM OVC035 15/12 A2934 RMK AO2 PK WND
                 21031/0739 SLP934 T01500122 =

Support USWX by starting your Amazon purchase here.